sensor_id;sensor_type;location;lat;lon;timestamp;P1;durP1;ratioP1;P2;durP2;ratioP2
73650;SDS011;61944;52.538;6.108;2023-11-19T05:48:04;27.08;;;4.88;;
73650;SDS011;61944;52.538;6.108;2023-11-19T05:50:29;26.83;;;5.85;;
73650;SDS011;61944;52.538;6.108;2023-11-19T05:52:55;21.23;;;5.22;;
73650;SDS011;61944;52.538;6.108;2023-11-19T05:55:20;29.38;;;5.55;;
73650;SDS011;61944;52.538;6.108;2023-11-19T05:57:45;33.70;;;6.00;;
73650;SDS011;61944;52.538;6.108;2023-11-19T06:00:11;38.90;;;6.50;;
73650;SDS011;61944;52.538;6.108;2023-11-19T06:02:38;30.13;;;5.93;;
73650;SDS011;61944;52.538;6.108;2023-11-19T06:05:04;26.83;;;5.70;;
73650;SDS011;61944;52.538;6.108;2023-11-19T06:07:31;25.73;;;6.50;;
73650;SDS011;61944;52.538;6.108;2023-11-19T06:09:56;25.33;;;4.45;;
73650;SDS011;61944;52.538;6.108;2023-11-19T06:12:22;35.08;;;5.63;;
73650;SDS011;61944;52.538;6.108;2023-11-19T06:14:47;28.23;;;6.38;;
73650;SDS011;61944;52.538;6.108;2023-11-19T06:17:13;24.73;;;6.65;;
73650;SDS011;61944;52.538;6.108;2023-11-19T06:19:38;35.72;;;7.10;;
73650;SDS011;61944;52.538;6.108;2023-11-19T06:22:04;18.30;;;5.20;;
73650;SDS011;61944;52.538;6.108;2023-11-19T06:24:29;39.42;;;5.38;;
73650;SDS011;61944;52.538;6.108;2023-11-19T06:26:54;30.88;;;5.13;;
73650;SDS011;61944;52.538;6.108;2023-11-19T06:29:20;32.63;;;5.20;;
73650;SDS011;61944;52.538;6.108;2023-11-19T06:31:45;24.92;;;5.18;;
73650;SDS011;61944;52.538;6.108;2023-11-19T06:34:13;39.28;;;6.78;;
73650;SDS011;61944;52.538;6.108;2023-11-19T06:36:39;27.60;;;6.35;;
73650;SDS011;61944;52.538;6.108;2023-11-19T06:39:04;32.03;;;6.13;;
73650;SDS011;61944;52.538;6.108;2023-11-19T06:41:30;34.05;;;6.30;;
73650;SDS011;61944;52.538;6.108;2023-11-19T06:43:56;28.08;;;6.30;;
73650;SDS011;61944;52.538;6.108;2023-11-19T06:46:21;26.60;;;5.18;;
73650;SDS011;61944;52.538;6.108;2023-11-19T06:48:47;24.55;;;5.07;;
73650;SDS011;61944;52.538;6.108;2023-11-19T06:51:12;27.33;;;5.28;;
73650;SDS011;61944;52.538;6.108;2023-11-19T06:53:38;30.92;;;5.25;;
73650;SDS011;61944;52.538;6.108;2023-11-19T06:56:05;29.20;;;4.53;;
73650;SDS011;61944;52.538;6.108;2023-11-19T06:58:41;26.63;;;6.32;;
73650;SDS011;61944;52.538;6.108;2023-11-19T07:01:07;24.45;;;4.80;;
73650;SDS011;61944;52.538;6.108;2023-11-19T07:03:33;29.75;;;5.30;;
73650;SDS011;61944;52.538;6.108;2023-11-19T07:06:00;30.67;;;6.65;;
73650;SDS011;61944;52.538;6.108;2023-11-19T07:08:25;29.50;;;6.70;;
73650;SDS011;61944;52.538;6.108;2023-11-19T07:10:51;30.35;;;6.13;;
73650;SDS011;61944;52.538;6.108;2023-11-19T07:13:17;23.25;;;5.47;;
73650;SDS011;61944;52.538;6.108;2023-11-19T07:15:47;27.20;;;4.63;;
73650;SDS011;61944;52.538;6.108;2023-11-19T07:18:12;31.55;;;6.40;;
73650;SDS011;61944;52.538;6.108;2023-11-19T07:20:39;26.92;;;4.82;;
73650;SDS011;61944;52.538;6.108;2023-11-19T07:23:05;24.42;;;4.93;;
73650;SDS011;61944;52.538;6.108;2023-11-19T07:25:31;27.77;;;6.20;;
73650;SDS011;61944;52.538;6.108;2023-11-19T07:27:56;33.78;;;6.05;;
73650;SDS011;61944;52.538;6.108;2023-11-19T07:30:22;35.20;;;8.10;;
73650;SDS011;61944;52.538;6.108;2023-11-19T07:32:47;32.75;;;5.40;;
73650;SDS011;61944;52.538;6.108;2023-11-19T07:35:13;23.60;;;4.68;;
73650;SDS011;61944;52.538;6.108;2023-11-19T07:37:39;24.42;;;5.95;;
73650;SDS011;61944;52.538;6.108;2023-11-19T07:40:04;23.20;;;4.45;;
73650;SDS011;61944;52.538;6.108;2023-11-19T07:42:30;25.73;;;5.57;;
73650;SDS011;61944;52.538;6.108;2023-11-19T07:44:56;19.67;;;5.07;;
73650;SDS011;61944;52.538;6.108;2023-11-19T07:47:22;24.42;;;4.93;;
73650;SDS011;61944;52.538;6.108;2023-11-19T07:49:48;26.75;;;5.07;;
73650;SDS011;61944;52.538;6.108;2023-11-19T07:52:14;25.02;;;4.50;;
73650;SDS011;61944;52.538;6.108;2023-11-19T07:54:41;24.00;;;6.43;;
73650;SDS011;61944;52.538;6.108;2023-11-19T07:57:06;31.38;;;5.75;;
73650;SDS011;61944;52.538;6.108;2023-11-19T07:59:32;20.38;;;4.85;;
73650;SDS011;61944;52.538;6.108;2023-11-19T08:01:57;33.35;;;6.38;;
73650;SDS011;61944;52.538;6.108;2023-11-19T08:04:23;28.33;;;6.40;;
73650;SDS011;61944;52.538;6.108;2023-11-19T08:06:48;37.67;;;7.88;;
73650;SDS011;61944;52.538;6.108;2023-11-19T08:09:13;28.45;;;4.85;;
73650;SDS011;61944;52.538;6.108;2023-11-19T08:11:40;35.92;;;5.85;;
73650;SDS011;61944;52.538;6.108;2023-11-19T08:14:06;26.70;;;4.30;;
73650;SDS011;61944;52.538;6.108;2023-11-19T08:16:31;28.58;;;5.32;;
73650;SDS011;61944;52.538;6.108;2023-11-19T08:18:57;39.17;;;6.47;;
73650;SDS011;61944;52.538;6.108;2023-11-19T08:21:23;27.83;;;5.32;;
73650;SDS011;61944;52.538;6.108;2023-11-19T08:23:48;36.60;;;6.60;;
73650;SDS011;61944;52.538;6.108;2023-11-19T08:26:14;31.63;;;5.97;;
73650;SDS011;61944;52.538;6.108;2023-11-19T08:28:40;32.75;;;6.05;;
73650;SDS011;61944;52.538;6.108;2023-11-19T08:31:05;26.75;;;6.85;;
73650;SDS011;61944;52.538;6.108;2023-11-19T08:33:31;30.33;;;5.78;;
73650;SDS011;61944;52.538;6.108;2023-11-19T08:35:57;30.05;;;7.07;;
73650;SDS011;61944;52.538;6.108;2023-11-19T08:38:23;30.45;;;5.95;;
73650;SDS011;61944;52.538;6.108;2023-11-19T08:40:49;26.73;;;5.47;;
73650;SDS011;61944;52.538;6.108;2023-11-19T08:43:14;34.42;;;6.43;;
73650;SDS011;61944;52.538;6.108;2023-11-19T08:45:39;23.15;;;3.72;;
73650;SDS011;61944;52.538;6.108;2023-11-19T08:48:05;19.08;;;4.25;;
73650;SDS011;61944;52.538;6.108;2023-11-19T08:50:30;30.73;;;6.32;;
73650;SDS011;61944;52.538;6.108;2023-11-19T08:52:56;31.35;;;5.88;;
73650;SDS011;61944;52.538;6.108;2023-11-19T08:55:21;24.23;;;5.15;;
73650;SDS011;61944;52.538;6.108;2023-11-19T08:57:46;35.83;;;7.75;;
73650;SDS011;61944;52.538;6.108;2023-11-19T09:00:12;22.00;;;4.95;;
73650;SDS011;61944;52.538;6.108;2023-11-19T09:02:39;32.65;;;5.30;;
73650;SDS011;61944;52.538;6.108;2023-11-19T09:05:05;26.35;;;5.80;;
73650;SDS011;61944;52.538;6.108;2023-11-19T09:07:32;28.67;;;5.95;;
73650;SDS011;61944;52.538;6.108;2023-11-19T09:09:57;31.83;;;5.30;;
73650;SDS011;61944;52.538;6.108;2023-11-19T09:12:23;28.10;;;5.43;;
73650;SDS011;61944;52.538;6.108;2023-11-19T09:14:49;28.98;;;5.70;;
73650;SDS011;61944;52.538;6.108;2023-11-19T09:17:14;33.80;;;6.35;;
73650;SDS011;61944;52.538;6.108;2023-11-19T09:19:40;29.02;;;6.30;;
73650;SDS011;61944;52.538;6.108;2023-11-19T09:22:05;33.10;;;5.03;;
73650;SDS011;61944;52.538;6.108;2023-11-19T09:24:31;24.17;;;6.72;;
73650;SDS011;61944;52.538;6.108;2023-11-19T09:26:56;30.35;;;6.20;;
73650;SDS011;61944;52.538;6.108;2023-11-19T09:29:22;34.88;;;5.35;;
73650;SDS011;61944;52.538;6.108;2023-11-19T09:31:48;28.25;;;6.47;;
73650;SDS011;61944;52.538;6.108;2023-11-19T09:34:14;31.13;;;5.47;;
73650;SDS011;61944;52.538;6.108;2023-11-19T09:36:39;28.80;;;5.43;;
73650;SDS011;61944;52.538;6.108;2023-11-19T09:39:08;32.50;;;6.97;;
73650;SDS011;61944;52.538;6.108;2023-11-19T09:41:34;28.60;;;6.45;;
73650;SDS011;61944;52.538;6.108;2023-11-19T09:44:00;26.30;;;4.88;;
73650;SDS011;61944;52.538;6.108;2023-11-19T09:46:25;30.05;;;5.55;;
73650;SDS011;61944;52.538;6.108;2023-11-19T09:48:54;30.88;;;4.25;;
73650;SDS011;61944;52.538;6.108;2023-11-19T09:51:22;27.10;;;5.55;;
73650;SDS011;61944;52.538;6.108;2023-11-19T09:53:48;25.08;;;5.75;;
73650;SDS011;61944;52.538;6.108;2023-11-19T09:56:14;25.83;;;6.63;;
73650;SDS011;61944;52.538;6.108;2023-11-19T09:58:41;25.98;;;5.07;;
73650;SDS011;61944;52.538;6.108;2023-11-19T10:01:07;37.00;;;7.90;;
73650;SDS011;61944;52.538;6.108;2023-11-19T10:03:35;26.50;;;4.32;;
73650;SDS011;61944;52.538;6.108;2023-11-19T10:06:07;37.97;;;6.53;;
73650;SDS011;61944;52.538;6.108;2023-11-19T10:08:33;28.73;;;5.22;;
73650;SDS011;61944;52.538;6.108;2023-11-19T10:11:01;26.85;;;4.90;;
73650;SDS011;61944;52.538;6.108;2023-11-19T10:13:26;31.65;;;6.55;;
73650;SDS011;61944;52.538;6.108;2023-11-19T10:15:53;26.77;;;5.80;;
73650;SDS011;61944;52.538;6.108;2023-11-19T10:18:25;37.28;;;6.13;;
73650;SDS011;61944;52.538;6.108;2023-11-19T10:20:51;23.38;;;5.43;;
73650;SDS011;61944;52.538;6.108;2023-11-19T10:23:16;25.67;;;4.60;;
73650;SDS011;61944;52.538;6.108;2023-11-19T10:25:42;31.13;;;6.32;;
73650;SDS011;61944;52.538;6.108;2023-11-19T10:28:07;23.90;;;5.13;;
73650;SDS011;61944;52.538;6.108;2023-11-19T10:30:32;29.40;;;5.88;;
73650;SDS011;61944;52.538;6.108;2023-11-19T10:33:03;20.33;;;4.13;;
73650;SDS011;61944;52.538;6.108;2023-11-19T10:38:13;27.92;;;5.75;;
73650;SDS011;61944;52.538;6.108;2023-11-19T10:40:42;31.02;;;5.47;;
73650;SDS011;61944;52.538;6.108;2023-11-19T10:43:08;36.17;;;6.70;;
73650;SDS011;61944;52.538;6.108;2023-11-19T10:45:37;27.25;;;5.95;;
73650;SDS011;61944;52.538;6.108;2023-11-19T10:48:04;25.95;;;5.65;;
73650;SDS011;61944;52.538;6.108;2023-11-19T10:50:33;34.97;;;5.55;;
73650;SDS011;61944;52.538;6.108;2023-11-19T10:53:01;29.05;;;5.40;;
73650;SDS011;61944;52.538;6.108;2023-11-19T10:55:29;33.08;;;6.30;;
73650;SDS011;61944;52.538;6.108;2023-11-19T10:57:59;54.00;;;7.20;;
73650;SDS011;61944;52.538;6.108;2023-11-19T11:00:26;33.15;;;5.18;;
73650;SDS011;61944;52.538;6.108;2023-11-19T11:02:55;29.73;;;7.07;;
73650;SDS011;61944;52.538;6.108;2023-11-19T11:05:24;33.72;;;5.72;;
73650;SDS011;61944;52.538;6.108;2023-11-19T11:07:51;25.13;;;8.30;;
73650;SDS011;61944;52.538;6.108;2023-11-19T11:10:20;42.08;;;8.38;;
73650;SDS011;61944;52.538;6.108;2023-11-19T11:12:47;37.67;;;6.97;;
73650;SDS011;61944;52.538;6.108;2023-11-19T11:15:15;39.97;;;5.72;;
73650;SDS011;61944;52.538;6.108;2023-11-19T11:17:43;31.67;;;5.95;;
73650;SDS011;61944;52.538;6.108;2023-11-19T11:20:11;36.58;;;7.13;;
73650;SDS011;61944;52.538;6.108;2023-11-19T11:22:44;40.72;;;7.47;;
73650;SDS011;61944;52.538;6.108;2023-11-19T11:25:23;33.30;;;5.65;;
73650;SDS011;61944;52.538;6.108;2023-11-19T11:27:58;31.42;;;5.63;;
73650;SDS011;61944;52.538;6.108;2023-11-19T11:36:37;37.83;;;5.77;;
73650;SDS011;61944;52.538;6.108;2023-11-19T11:39:12;34.55;;;6.43;;
73650;SDS011;61944;52.538;6.108;2023-11-19T11:41:38;24.92;;;5.05;;
73650;SDS011;61944;52.538;6.108;2023-11-19T11:44:03;38.35;;;5.72;;
73650;SDS011;61944;52.538;6.108;2023-11-19T11:49:15;33.47;;;5.03;;
73650;SDS011;61944;52.538;6.108;2023-11-19T11:51:59;29.43;;;5.37;;
73650;SDS011;61944;52.538;6.108;2023-11-19T11:54:26;28.52;;;5.40;;
73650;SDS011;61944;52.538;6.108;2023-11-19T11:57:03;33.67;;;6.88;;
73650;SDS011;61944;52.538;6.108;2023-11-19T12:02:09;27.08;;;5.30;;
73650;SDS011;61944;52.538;6.108;2023-11-19T12:04:36;26.98;;;5.85;;
73650;SDS011;61944;52.538;6.108;2023-11-19T12:09:32;29.67;;;5.80;;
73650;SDS011;61944;52.538;6.108;2023-11-19T12:19:58;22.23;;;4.10;;
73650;SDS011;61944;52.538;6.108;2023-11-19T12:22:26;22.08;;;3.95;;
73650;SDS011;61944;52.538;6.108;2023-11-19T12:24:55;20.45;;;5.57;;
73650;SDS011;61944;52.538;6.108;2023-11-19T12:27:21;24.75;;;5.30;;
73650;SDS011;61944;52.538;6.108;2023-11-19T12:29:47;22.83;;;5.63;;
73650;SDS011;61944;52.538;6.108;2023-11-19T12:32:13;21.50;;;4.78;;
73650;SDS011;61944;52.538;6.108;2023-11-19T12:34:39;29.25;;;5.10;;
73650;SDS011;61944;52.538;6.108;2023-11-19T12:37:04;28.13;;;4.95;;
73650;SDS011;61944;52.538;6.108;2023-11-19T12:39:30;19.17;;;3.85;;
73650;SDS011;61944;52.538;6.108;2023-11-19T12:41:56;24.52;;;5.70;;
73650;SDS011;61944;52.538;6.108;2023-11-19T12:44:24;23.27;;;3.50;;
73650;SDS011;61944;52.538;6.108;2023-11-19T12:47:08;22.10;;;5.10;;
73650;SDS011;61944;52.538;6.108;2023-11-19T12:49:36;26.60;;;5.03;;
73650;SDS011;61944;52.538;6.108;2023-11-19T12:52:02;26.67;;;7.18;;
73650;SDS011;61944;52.538;6.108;2023-11-19T12:54:36;15.95;;;4.65;;
73650;SDS011;61944;52.538;6.108;2023-11-19T12:57:02;22.25;;;4.80;;
73650;SDS011;61944;52.538;6.108;2023-11-19T12:59:28;23.45;;;3.88;;
73650;SDS011;61944;52.538;6.108;2023-11-19T13:01:59;14.45;;;3.72;;
73650;SDS011;61944;52.538;6.108;2023-11-19T13:04:28;24.27;;;4.03;;
73650;SDS011;61944;52.538;6.108;2023-11-19T13:07:00;17.52;;;3.90;;
73650;SDS011;61944;52.538;6.108;2023-11-19T13:09:28;14.18;;;4.65;;
73650;SDS011;61944;52.538;6.108;2023-11-19T13:11:54;23.08;;;4.50;;
73650;SDS011;61944;52.538;6.108;2023-11-19T13:14:21;23.38;;;3.58;;
73650;SDS011;61944;52.538;6.108;2023-11-19T13:16:47;30.63;;;5.78;;
73650;SDS011;61944;52.538;6.108;2023-11-19T13:19:13;33.58;;;5.90;;
73650;SDS011;61944;52.538;6.108;2023-11-19T13:21:41;20.00;;;7.07;;
73650;SDS011;61944;52.538;6.108;2023-11-19T13:24:07;24.60;;;4.82;;
73650;SDS011;61944;52.538;6.108;2023-11-19T13:26:33;17.17;;;4.20;;
73650;SDS011;61944;52.538;6.108;2023-11-19T13:28:59;24.00;;;4.53;;
73650;SDS011;61944;52.538;6.108;2023-11-19T13:31:25;21.20;;;4.97;;
73650;SDS011;61944;52.538;6.108;2023-11-19T13:33:50;25.67;;;4.47;;
73650;SDS011;61944;52.538;6.108;2023-11-19T13:36:16;19.52;;;4.38;;
73650;SDS011;61944;52.538;6.108;2023-11-19T13:38:41;20.52;;;4.40;;
73650;SDS011;61944;52.538;6.108;2023-11-19T13:41:09;18.10;;;4.30;;
73650;SDS011;61944;52.538;6.108;2023-11-19T13:43:35;15.73;;;3.00;;
73650;SDS011;61944;52.538;6.108;2023-11-19T13:46:01;24.13;;;4.40;;
73650;SDS011;61944;52.538;6.108;2023-11-19T13:48:27;17.48;;;3.60;;
73650;SDS011;61944;52.538;6.108;2023-11-19T13:50:54;17.88;;;4.68;;
73650;SDS011;61944;52.538;6.108;2023-11-19T13:53:22;23.73;;;5.30;;
73650;SDS011;61944;52.538;6.108;2023-11-19T13:55:48;20.02;;;4.35;;
73650;SDS011;61944;52.538;6.108;2023-11-19T13:58:14;19.30;;;4.18;;
73650;SDS011;61944;52.538;6.108;2023-11-19T14:00:40;20.90;;;3.92;;
73650;SDS011;61944;52.538;6.108;2023-11-19T14:03:07;18.90;;;3.40;;
73650;SDS011;61944;52.538;6.108;2023-11-19T14:05:33;16.63;;;3.30;;
73650;SDS011;61944;52.538;6.108;2023-11-19T14:07:58;20.98;;;3.80;;
73650;SDS011;61944;52.538;6.108;2023-11-19T14:10:23;24.20;;;3.83;;
73650;SDS011;61944;52.538;6.108;2023-11-19T14:12:49;15.13;;;4.70;;
73650;SDS011;61944;52.538;6.108;2023-11-19T14:15:15;25.23;;;5.32;;
73650;SDS011;61944;52.538;6.108;2023-11-19T14:17:42;17.35;;;3.55;;
73650;SDS011;61944;52.538;6.108;2023-11-19T14:20:08;22.13;;;4.13;;
73650;SDS011;61944;52.538;6.108;2023-11-19T14:22:44;13.70;;;2.85;;
73650;SDS011;61944;52.538;6.108;2023-11-19T14:25:12;18.17;;;4.00;;
73650;SDS011;61944;52.538;6.108;2023-11-19T14:27:38;14.63;;;4.43;;
73650;SDS011;61944;52.538;6.108;2023-11-19T14:30:05;19.40;;;5.00;;
73650;SDS011;61944;52.538;6.108;2023-11-19T14:32:31;14.98;;;2.58;;
73650;SDS011;61944;52.538;6.108;2023-11-19T14:34:57;21.17;;;5.15;;
73650;SDS011;61944;52.538;6.108;2023-11-19T14:37:22;19.52;;;4.10;;
73650;SDS011;61944;52.538;6.108;2023-11-19T14:39:47;17.65;;;2.92;;
73650;SDS011;61944;52.538;6.108;2023-11-19T14:42:15;20.98;;;5.55;;
73650;SDS011;61944;52.538;6.108;2023-11-19T14:44:41;19.80;;;3.25;;
73650;SDS011;61944;52.538;6.108;2023-11-19T14:47:06;13.98;;;3.13;;
73650;SDS011;61944;52.538;6.108;2023-11-19T14:49:31;24.95;;;4.95;;
73650;SDS011;61944;52.538;6.108;2023-11-19T14:51:57;15.60;;;3.53;;
73650;SDS011;61944;52.538;6.108;2023-11-19T14:54:22;19.10;;;3.83;;
73650;SDS011;61944;52.538;6.108;2023-11-19T14:56:49;20.27;;;4.53;;
73650;SDS011;61944;52.538;6.108;2023-11-19T14:59:14;18.83;;;4.05;;
73650;SDS011;61944;52.538;6.108;2023-11-19T15:01:39;21.27;;;5.53;;
73650;SDS011;61944;52.538;6.108;2023-11-19T15:04:05;20.25;;;3.75;;
73650;SDS011;61944;52.538;6.108;2023-11-19T15:06:31;18.10;;;3.70;;
73650;SDS011;61944;52.538;6.108;2023-11-19T15:08:58;18.13;;;4.22;;
73650;SDS011;61944;52.538;6.108;2023-11-19T15:11:23;12.07;;;2.50;;
73650;SDS011;61944;52.538;6.108;2023-11-19T15:13:49;19.00;;;3.92;;
73650;SDS011;61944;52.538;6.108;2023-11-19T15:16:14;18.38;;;3.33;;
73650;SDS011;61944;52.538;6.108;2023-11-19T15:18:42;21.23;;;4.40;;
73650;SDS011;61944;52.538;6.108;2023-11-19T15:21:07;15.75;;;3.47;;
73650;SDS011;61944;52.538;6.108;2023-11-19T15:23:33;20.00;;;5.15;;
73650;SDS011;61944;52.538;6.108;2023-11-19T15:25:59;15.98;;;2.97;;
73650;SDS011;61944;52.538;6.108;2023-11-19T15:28:24;13.68;;;3.40;;
73650;SDS011;61944;52.538;6.108;2023-11-19T15:30:49;31.85;;;7.18;;
73650;SDS011;61944;52.538;6.108;2023-11-19T15:33:14;20.25;;;3.72;;
73650;SDS011;61944;52.538;6.108;2023-11-19T15:35:40;20.80;;;5.53;;
73650;SDS011;61944;52.538;6.108;2023-11-19T15:38:05;25.85;;;4.43;;
73650;SDS011;61944;52.538;6.108;2023-11-19T15:40:34;23.70;;;5.43;;
73650;SDS011;61944;52.538;6.108;2023-11-19T15:43:00;31.30;;;5.43;;
73650;SDS011;61944;52.538;6.108;2023-11-19T15:45:26;30.00;;;4.43;;
73650;SDS011;61944;52.538;6.108;2023-11-19T15:47:51;24.85;;;4.63;;
73650;SDS011;61944;52.538;6.108;2023-11-19T15:50:17;30.23;;;6.43;;
73650;SDS011;61944;52.538;6.108;2023-11-19T15:52:42;16.60;;;5.10;;
73650;SDS011;61944;52.538;6.108;2023-11-19T15:55:10;25.42;;;5.20;;
73650;SDS011;61944;52.538;6.108;2023-11-19T15:57:37;21.33;;;5.38;;
73650;SDS011;61944;52.538;6.108;2023-11-19T16:00:02;18.30;;;4.20;;
73650;SDS011;61944;52.538;6.108;2023-11-19T16:02:29;18.42;;;5.05;;
73650;SDS011;61944;52.538;6.108;2023-11-19T16:04:54;18.50;;;4.45;;
73650;SDS011;61944;52.538;6.108;2023-11-19T16:07:19;20.80;;;5.32;;
73650;SDS011;61944;52.538;6.108;2023-11-19T16:09:45;22.63;;;5.10;;
73650;SDS011;61944;52.538;6.108;2023-11-19T16:12:10;15.20;;;4.63;;
73650;SDS011;61944;52.538;6.108;2023-11-19T16:14:35;26.13;;;7.13;;
73650;SDS011;61944;52.538;6.108;2023-11-19T16:17:01;20.35;;;4.45;;
73650;SDS011;61944;52.538;6.108;2023-11-19T16:19:26;25.42;;;5.40;;
73650;SDS011;61944;52.538;6.108;2023-11-19T16:21:52;24.52;;;3.83;;
73650;SDS011;61944;52.538;6.108;2023-11-19T16:24:17;27.90;;;4.78;;
73650;SDS011;61944;52.538;6.108;2023-11-19T16:26:43;21.63;;;4.70;;
73650;SDS011;61944;52.538;6.108;2023-11-19T16:29:08;20.35;;;4.03;;
73650;SDS011;61944;52.538;6.108;2023-11-19T16:31:35;23.85;;;4.65;;
73650;SDS011;61944;52.538;6.108;2023-11-19T16:34:00;30.30;;;8.00;;
73650;SDS011;61944;52.538;6.108;2023-11-19T16:36:26;21.35;;;4.50;;
73650;SDS011;61944;52.538;6.108;2023-11-19T16:38:51;27.67;;;4.57;;
73650;SDS011;61944;52.538;6.108;2023-11-19T16:41:20;26.52;;;4.05;;
73650;SDS011;61944;52.538;6.108;2023-11-19T16:43:47;29.92;;;7.13;;
73650;SDS011;61944;52.538;6.108;2023-11-19T16:46:14;23.63;;;3.63;;
73650;SDS011;61944;52.538;6.108;2023-11-19T16:48:39;29.80;;;4.85;;
73650;SDS011;61944;52.538;6.108;2023-11-19T16:51:09;22.85;;;5.35;;
73650;SDS011;61944;52.538;6.108;2023-11-19T16:53:45;12.98;;;5.25;;
73650;SDS011;61944;52.538;6.108;2023-11-19T16:56:12;33.90;;;6.80;;
73650;SDS011;61944;52.538;6.108;2023-11-19T16:58:38;20.27;;;4.03;;
73650;SDS011;61944;52.538;6.108;2023-11-19T17:01:03;17.33;;;4.90;;
73650;SDS011;61944;52.538;6.108;2023-11-19T17:03:29;29.92;;;5.40;;
73650;SDS011;61944;52.538;6.108;2023-11-19T17:05:54;26.10;;;5.35;;
73650;SDS011;61944;52.538;6.108;2023-11-19T17:08:19;24.60;;;5.93;;
73650;SDS011;61944;52.538;6.108;2023-11-19T17:10:45;24.08;;;5.63;;
73650;SDS011;61944;52.538;6.108;2023-11-19T17:13:10;27.90;;;4.95;;
73650;SDS011;61944;52.538;6.108;2023-11-19T17:15:36;27.48;;;5.45;;
73650;SDS011;61944;52.538;6.108;2023-11-19T17:18:02;27.17;;;5.47;;
73650;SDS011;61944;52.538;6.108;2023-11-19T17:20:28;18.38;;;5.90;;
73650;SDS011;61944;52.538;6.108;2023-11-19T17:22:54;29.23;;;5.57;;
73650;SDS011;61944;52.538;6.108;2023-11-19T17:25:20;29.95;;;6.75;;
73650;SDS011;61944;52.538;6.108;2023-11-19T17:27:47;34.92;;;5.18;;
73650;SDS011;61944;52.538;6.108;2023-11-19T17:30:13;38.80;;;6.53;;
73650;SDS011;61944;52.538;6.108;2023-11-19T17:32:38;22.92;;;4.53;;
73650;SDS011;61944;52.538;6.108;2023-11-19T17:35:05;26.40;;;5.07;;
73650;SDS011;61944;52.538;6.108;2023-11-19T17:37:31;25.65;;;7.85;;
73650;SDS011;61944;52.538;6.108;2023-11-19T17:39:57;21.27;;;5.03;;
73650;SDS011;61944;52.538;6.108;2023-11-19T17:42:23;15.75;;;3.58;;
73650;SDS011;61944;52.538;6.108;2023-11-19T17:44:48;21.58;;;5.70;;
73650;SDS011;61944;52.538;6.108;2023-11-19T17:47:14;20.98;;;5.82;;
73650;SDS011;61944;52.538;6.108;2023-11-19T17:49:39;19.27;;;4.40;;
73650;SDS011;61944;52.538;6.108;2023-11-19T17:52:05;21.48;;;4.85;;
73650;SDS011;61944;52.538;6.108;2023-11-19T17:54:35;24.40;;;6.00;;
73650;SDS011;61944;52.538;6.108;2023-11-19T17:57:01;20.98;;;4.13;;
73650;SDS011;61944;52.538;6.108;2023-11-19T17:59:26;19.85;;;4.07;;
73650;SDS011;61944;52.538;6.108;2023-11-19T18:01:51;13.05;;;4.25;;
73650;SDS011;61944;52.538;6.108;2023-11-19T18:04:21;15.05;;;5.13;;
73650;SDS011;61944;52.538;6.108;2023-11-19T18:06:50;19.05;;;4.32;;
73650;SDS011;61944;52.538;6.108;2023-11-19T18:09:16;21.90;;;4.22;;
73650;SDS011;61944;52.538;6.108;2023-11-19T18:11:42;12.13;;;3.75;;
73650;SDS011;61944;52.538;6.108;2023-11-19T18:14:08;18.00;;;4.50;;
73650;SDS011;61944;52.538;6.108;2023-11-19T18:16:35;26.75;;;4.80;;
73650;SDS011;61944;52.538;6.108;2023-11-19T18:19:00;19.35;;;6.10;;
73650;SDS011;61944;52.538;6.108;2023-11-19T18:21:26;18.42;;;5.47;;
73650;SDS011;61944;52.538;6.108;2023-11-19T18:23:51;14.90;;;4.60;;
73650;SDS011;61944;52.538;6.108;2023-11-19T18:26:16;18.52;;;5.18;;
73650;SDS011;61944;52.538;6.108;2023-11-19T18:28:42;19.17;;;5.00;;
73650;SDS011;61944;52.538;6.108;2023-11-19T18:31:07;11.15;;;4.18;;
73650;SDS011;61944;52.538;6.108;2023-11-19T18:33:33;19.33;;;4.13;;
73650;SDS011;61944;52.538;6.108;2023-11-19T18:35:58;12.20;;;3.92;;
73650;SDS011;61944;52.538;6.108;2023-11-19T18:38:23;16.15;;;4.63;;
73650;SDS011;61944;52.538;6.108;2023-11-19T18:40:49;13.93;;;4.78;;
73650;SDS011;61944;52.538;6.108;2023-11-19T18:43:14;17.02;;;5.07;;
73650;SDS011;61944;52.538;6.108;2023-11-19T18:45:39;11.07;;;2.92;;
73650;SDS011;61944;52.538;6.108;2023-11-19T18:48:05;17.48;;;3.80;;
73650;SDS011;61944;52.538;6.108;2023-11-19T18:50:31;13.50;;;2.90;;
73650;SDS011;61944;52.538;6.108;2023-11-19T18:52:56;9.35;;;3.17;;
73650;SDS011;61944;52.538;6.108;2023-11-19T18:55:22;8.57;;;3.20;;
73650;SDS011;61944;52.538;6.108;2023-11-19T18:57:47;14.32;;;2.95;;
73650;SDS011;61944;52.538;6.108;2023-11-19T19:00:13;11.75;;;3.22;;
73650;SDS011;61944;52.538;6.108;2023-11-19T19:02:40;9.32;;;2.10;;
73650;SDS011;61944;52.538;6.108;2023-11-19T19:05:06;12.63;;;3.75;;
73650;SDS011;61944;52.538;6.108;2023-11-19T19:07:31;8.77;;;3.65;;
73650;SDS011;61944;52.538;6.108;2023-11-19T19:09:57;8.85;;;2.70;;
73650;SDS011;61944;52.538;6.108;2023-11-19T19:12:23;8.77;;;2.78;;
73650;SDS011;61944;52.538;6.108;2023-11-19T19:14:48;9.73;;;2.70;;
73650;SDS011;61944;52.538;6.108;2023-11-19T19:17:14;8.40;;;2.95;;
73650;SDS011;61944;52.538;6.108;2023-11-19T19:19:40;8.48;;;2.78;;
73650;SDS011;61944;52.538;6.108;2023-11-19T19:22:06;9.55;;;3.85;;
73650;SDS011;61944;52.538;6.108;2023-11-19T19:24:31;12.90;;;3.10;;
73650;SDS011;61944;52.538;6.108;2023-11-19T19:26:56;9.90;;;2.83;;
73650;SDS011;61944;52.538;6.108;2023-11-19T19:29:22;9.60;;;3.58;;
73650;SDS011;61944;52.538;6.108;2023-11-19T19:31:48;7.88;;;2.80;;
73650;SDS011;61944;52.538;6.108;2023-11-19T19:34:16;9.65;;;3.97;;
73650;SDS011;61944;52.538;6.108;2023-11-19T19:36:42;10.38;;;3.83;;
73650;SDS011;61944;52.538;6.108;2023-11-19T19:39:07;14.95;;;3.88;;
73650;SDS011;61944;52.538;6.108;2023-11-19T19:41:39;17.55;;;3.97;;
73650;SDS011;61944;52.538;6.108;2023-11-19T19:44:07;16.70;;;3.42;;
73650;SDS011;61944;52.538;6.108;2023-11-19T19:46:41;6.55;;;3.80;;
73650;SDS011;61944;52.538;6.108;2023-11-19T19:49:07;9.50;;;4.00;;
73650;SDS011;61944;52.538;6.108;2023-11-19T19:51:33;12.43;;;5.78;;
73650;SDS011;61944;52.538;6.108;2023-11-19T19:53:58;8.20;;;3.85;;
73650;SDS011;61944;52.538;6.108;2023-11-19T19:56:24;14.63;;;4.00;;
73650;SDS011;61944;52.538;6.108;2023-11-19T19:58:49;10.68;;;3.63;;
73650;SDS011;61944;52.538;6.108;2023-11-19T20:01:15;15.63;;;4.13;;
73650;SDS011;61944;52.538;6.108;2023-11-19T20:03:40;10.18;;;4.22;;
73650;SDS011;61944;52.538;6.108;2023-11-19T20:06:05;14.98;;;4.57;;
73650;SDS011;61944;52.538;6.108;2023-11-19T20:08:36;9.35;;;3.38;;
73650;SDS011;61944;52.538;6.108;2023-11-19T20:11:02;11.43;;;4.28;;
73650;SDS011;61944;52.538;6.108;2023-11-19T20:13:28;8.15;;;3.33;;
73650;SDS011;61944;52.538;6.108;2023-11-19T20:15:54;9.73;;;3.85;;
73650;SDS011;61944;52.538;6.108;2023-11-19T20:18:19;11.68;;;5.22;;
73650;SDS011;61944;52.538;6.108;2023-11-19T20:20:45;12.20;;;4.00;;
73650;SDS011;61944;52.538;6.108;2023-11-19T20:23:10;10.27;;;4.00;;
73650;SDS011;61944;52.538;6.108;2023-11-19T20:25:35;8.93;;;4.40;;
73650;SDS011;61944;52.538;6.108;2023-11-19T20:28:01;22.25;;;10.25;;
73650;SDS011;61944;52.538;6.108;2023-11-19T20:30:27;13.25;;;4.35;;
73650;SDS011;61944;52.538;6.108;2023-11-19T20:32:52;15.65;;;4.47;;
73650;SDS011;61944;52.538;6.108;2023-11-19T20:35:17;13.52;;;4.43;;
73650;SDS011;61944;52.538;6.108;2023-11-19T20:37:43;13.95;;;4.95;;
73650;SDS011;61944;52.538;6.108;2023-11-19T20:40:09;16.35;;;4.68;;
73650;SDS011;61944;52.538;6.108;2023-11-19T20:42:36;22.33;;;4.78;;